sensor_id;sensor_type;location;lat;lon;timestamp;pressure;altitude;pressure_sealevel;temperature;humidity
14885;BME280;7534;50.762;7.000;2023-04-27T00:00:37;88272.06;;;-143.16;49.67
14885;BME280;7534;50.762;7.000;2023-04-27T00:03:03;88298.28;;;-143.16;49.85
14885;BME280;7534;50.762;7.000;2023-04-27T00:05:39;88255.91;;;-143.16;49.71
14885;BME280;7534;50.762;7.000;2023-04-27T00:08:05;88263.97;;;-143.16;49.83
14885;BME280;7534;50.762;7.000;2023-04-27T00:10:31;88272.06;;;-143.16;49.97
14885;BME280;7534;50.762;7.000;2023-04-27T00:12:57;88342.72;;;-143.16;50.16
14885;BME280;7534;50.762;7.000;2023-04-27T00:15:23;88286.19;;;-143.16;50.33
14885;BME280;7534;50.762;7.000;2023-04-27T00:17:49;88314.44;;;-143.16;50.20
14885;BME280;7534;50.762;7.000;2023-04-27T00:20:16;88286.19;;;-143.16;50.18
14885;BME280;7534;50.762;7.000;2023-04-27T00:22:41;88270.03;;;-143.16;50.06
14885;BME280;7534;50.762;7.000;2023-04-27T00:25:07;88282.16;;;-143.16;50.17
14885;BME280;7534;50.762;7.000;2023-04-27T00:27:33;88395.19;;;-143.16;50.10
14885;BME280;7534;50.762;7.000;2023-04-27T00:29:59;88284.16;;;-143.16;50.02
14885;BME280;7534;50.762;7.000;2023-04-27T00:32:24;88308.38;;;-143.16;49.82
14885;BME280;7534;50.762;7.000;2023-04-27T00:34:50;88282.16;;;-143.16;49.91
14885;BME280;7534;50.762;7.000;2023-04-27T00:37:16;88266.00;;;-143.16;49.87
14885;BME280;7534;50.762;7.000;2023-04-27T00:39:41;88272.06;;;-143.16;49.96
14885;BME280;7534;50.762;7.000;2023-04-27T00:42:07;88314.44;;;-143.16;49.77
14885;BME280;7534;50.762;7.000;2023-04-27T00:44:37;88290.22;;;-143.16;49.55
14885;BME280;7534;50.762;7.000;2023-04-27T00:47:04;88302.34;;;-143.16;49.85
14885;BME280;7534;50.762;7.000;2023-04-27T00:49:31;88344.72;;;-143.16;49.79
14885;BME280;7534;50.762;7.000;2023-04-27T00:51:56;88336.66;;;-143.16;50.07
14885;BME280;7534;50.762;7.000;2023-04-27T00:54:23;88274.06;;;-143.16;50.29
14885;BME280;7534;50.762;7.000;2023-04-27T00:56:50;88294.25;;;-143.16;50.63
14885;BME280;7534;50.762;7.000;2023-04-27T00:59:17;88298.28;;;-143.16;51.10
14885;BME280;7534;50.762;7.000;2023-04-27T01:01:50;88298.28;;;-143.16;51.25
14885;BME280;7534;50.762;7.000;2023-04-27T01:04:17;88298.28;;;-143.16;51.37
14885;BME280;7534;50.762;7.000;2023-04-27T01:06:43;88270.03;;;-143.16;51.40
14885;BME280;7534;50.762;7.000;2023-04-27T01:09:08;88334.63;;;-143.16;51.39
14885;BME280;7534;50.762;7.000;2023-04-27T01:11:35;88282.16;;;-143.16;51.30
14885;BME280;7534;50.762;7.000;2023-04-27T01:14:05;88282.16;;;-143.16;51.09
14885;BME280;7534;50.762;7.000;2023-04-27T01:16:34;88261.97;;;-143.16;50.86
14885;BME280;7534;50.762;7.000;2023-04-27T01:19:00;88286.19;;;-143.16;50.74
14885;BME280;7534;50.762;7.000;2023-04-27T01:21:26;88278.09;;;-143.16;50.78
14885;BME280;7534;50.762;7.000;2023-04-27T01:23:52;88274.06;;;-143.16;50.44
14885;BME280;7534;50.762;7.000;2023-04-27T01:26:19;88294.25;;;-143.16;50.18
14885;BME280;7534;50.762;7.000;2023-04-27T01:28:45;88284.16;;;-143.16;50.10
14885;BME280;7534;50.762;7.000;2023-04-27T01:31:12;88257.91;;;-143.16;50.43
14885;BME280;7534;50.762;7.000;2023-04-27T01:33:38;88290.22;;;-143.16;50.45
14885;BME280;7534;50.762;7.000;2023-04-27T01:36:05;88247.81;;;-143.16;50.56
14885;BME280;7534;50.762;7.000;2023-04-27T01:38:32;88257.91;;;-143.16;50.56
14885;BME280;7534;50.762;7.000;2023-04-27T01:40:58;88235.72;;;-143.16;50.79
14885;BME280;7534;50.762;7.000;2023-04-27T01:43:28;88288.19;;;-143.16;51.17
14885;BME280;7534;50.762;7.000;2023-04-27T01:45:54;88237.72;;;-143.16;50.70
14885;BME280;7534;50.762;7.000;2023-04-27T01:48:21;88274.06;;;-143.16;50.25
14885;BME280;7534;50.762;7.000;2023-04-27T01:50:46;88253.88;;;-143.16;49.99
14885;BME280;7534;50.762;7.000;2023-04-27T01:53:12;88272.06;;;-143.16;49.88
14885;BME280;7534;50.762;7.000;2023-04-27T01:55:38;88272.06;;;-143.16;49.84
14885;BME280;7534;50.762;7.000;2023-04-27T01:58:04;88286.19;;;-143.16;49.70
14885;BME280;7534;50.762;7.000;2023-04-27T02:00:29;88324.53;;;-143.16;49.49
14885;BME280;7534;50.762;7.000;2023-04-27T02:02:55;88290.22;;;-143.16;49.50
14885;BME280;7534;50.762;7.000;2023-04-27T02:05:23;88302.34;;;-143.16;49.78
14885;BME280;7534;50.762;7.000;2023-04-27T02:07:49;88312.44;;;-143.16;50.21
14885;BME280;7534;50.762;7.000;2023-04-27T02:10:15;88350.78;;;-143.16;50.50
14885;BME280;7534;50.762;7.000;2023-04-27T02:12:41;88300.31;;;-143.16;50.84
14885;BME280;7534;50.762;7.000;2023-04-27T02:15:07;88316.47;;;-143.16;50.95
14885;BME280;7534;50.762;7.000;2023-04-27T02:17:51;88407.31;;;-143.16;51.34
14885;BME280;7534;50.762;7.000;2023-04-27T02:20:17;88324.53;;;-143.16;51.46
14885;BME280;7534;50.762;7.000;2023-04-27T02:22:43;88330.59;;;-143.16;51.50
14885;BME280;7534;50.762;7.000;2023-04-27T02:25:12;88354.81;;;-143.16;51.69
14885;BME280;7534;50.762;7.000;2023-04-27T02:27:41;88332.63;;;-143.16;51.80
14885;BME280;7534;50.762;7.000;2023-04-27T02:30:09;88314.44;;;-143.16;52.09
14885;BME280;7534;50.762;7.000;2023-04-27T02:32:36;88354.81;;;-143.16;52.11
14885;BME280;7534;50.762;7.000;2023-04-27T02:35:02;88300.31;;;-143.16;52.44
14885;BME280;7534;50.762;7.000;2023-04-27T02:37:29;88340.69;;;-143.16;52.79
14885;BME280;7534;50.762;7.000;2023-04-27T02:39:55;88342.72;;;-143.16;52.85
14885;BME280;7534;50.762;7.000;2023-04-27T02:42:20;88342.72;;;-143.16;53.08
14885;BME280;7534;50.762;7.000;2023-04-27T02:44:46;88346.75;;;-143.16;53.34
14885;BME280;7534;50.762;7.000;2023-04-27T02:47:12;88318.47;;;-143.16;53.66
14885;BME280;7534;50.762;7.000;2023-04-27T02:49:38;88342.72;;;-143.16;53.83
14885;BME280;7534;50.762;7.000;2023-04-27T02:52:05;88320.50;;;-143.16;53.69
14885;BME280;7534;50.762;7.000;2023-04-27T02:54:31;88302.34;;;-143.16;53.94
14885;BME280;7534;50.762;7.000;2023-04-27T02:56:56;88326.56;;;-143.16;53.80
14885;BME280;7534;50.762;7.000;2023-04-27T02:59:22;88344.72;;;-143.16;53.80
14885;BME280;7534;50.762;7.000;2023-04-27T03:01:48;88320.50;;;-143.16;53.35
14885;BME280;7534;50.762;7.000;2023-04-27T03:04:14;88326.56;;;-143.16;53.74
14885;BME280;7534;50.762;7.000;2023-04-27T03:06:40;88338.66;;;-143.16;53.64
14885;BME280;7534;50.762;7.000;2023-04-27T03:09:06;88310.41;;;-143.16;53.93
14885;BME280;7534;50.762;7.000;2023-04-27T03:11:35;88284.16;;;-143.16;53.93
14885;BME280;7534;50.762;7.000;2023-04-27T03:14:01;88334.63;;;-143.16;53.89
14885;BME280;7534;50.762;7.000;2023-04-27T03:16:27;88330.59;;;-143.16;53.44
14885;BME280;7534;50.762;7.000;2023-04-27T03:18:52;88316.47;;;-143.16;53.41
14885;BME280;7534;50.762;7.000;2023-04-27T03:21:18;88328.56;;;-143.16;53.33
14885;BME280;7534;50.762;7.000;2023-04-27T03:23:44;88310.41;;;-143.16;53.24
14885;BME280;7534;50.762;7.000;2023-04-27T03:26:12;88322.53;;;-143.16;53.27
14885;BME280;7534;50.762;7.000;2023-04-27T03:28:38;88328.56;;;-143.16;53.44
14885;BME280;7534;50.762;7.000;2023-04-27T03:31:06;88334.63;;;-143.16;53.71
14885;BME280;7534;50.762;7.000;2023-04-27T03:33:32;88322.53;;;-143.16;53.77
14885;BME280;7534;50.762;7.000;2023-04-27T03:35:59;88350.78;;;-143.16;53.37
14885;BME280;7534;50.762;7.000;2023-04-27T03:38:25;88338.66;;;-143.16;52.77
14885;BME280;7534;50.762;7.000;2023-04-27T03:40:52;88366.94;;;-143.16;52.33
14885;BME280;7534;50.762;7.000;2023-04-27T03:43:19;88326.56;;;-143.16;52.24
14885;BME280;7534;50.762;7.000;2023-04-27T03:45:45;88366.94;;;-143.16;52.30
14885;BME280;7534;50.762;7.000;2023-04-27T03:48:11;88348.75;;;-143.16;52.09
14885;BME280;7534;50.762;7.000;2023-04-27T03:50:37;88366.94;;;-143.16;52.10
14885;BME280;7534;50.762;7.000;2023-04-27T03:53:02;88328.56;;;-143.16;52.16
14885;BME280;7534;50.762;7.000;2023-04-27T03:55:28;88302.34;;;-143.16;52.13
14885;BME280;7534;50.762;7.000;2023-04-27T03:57:54;88346.75;;;-143.16;52.11
14885;BME280;7534;50.762;7.000;2023-04-27T04:00:20;88352.81;;;-143.16;52.13
14885;BME280;7534;50.762;7.000;2023-04-27T04:02:46;88330.59;;;-143.16;52.06
14885;BME280;7534;50.762;7.000;2023-04-27T04:05:11;88332.63;;;-143.16;51.99
14885;BME280;7534;50.762;7.000;2023-04-27T04:07:39;88328.56;;;-143.16;52.17
14885;BME280;7534;50.762;7.000;2023-04-27T04:10:07;88354.81;;;-143.16;51.78
14885;BME280;7534;50.762;7.000;2023-04-27T04:12:32;88443.66;;;-143.16;51.80
14885;BME280;7534;50.762;7.000;2023-04-27T04:14:58;88375.00;;;-143.16;52.20
14885;BME280;7534;50.762;7.000;2023-04-27T04:17:24;88356.84;;;-143.16;52.30
14885;BME280;7534;50.762;7.000;2023-04-27T04:19:50;88362.91;;;-143.16;52.19
14885;BME280;7534;50.762;7.000;2023-04-27T04:22:16;88346.75;;;-143.16;52.35
14885;BME280;7534;50.762;7.000;2023-04-27T04:24:41;88379.03;;;-143.16;52.37
14885;BME280;7534;50.762;7.000;2023-04-27T04:27:07;88383.09;;;-143.16;52.69
14885;BME280;7534;50.762;7.000;2023-04-27T04:29:33;88346.75;;;-143.16;52.85
14885;BME280;7534;50.762;7.000;2023-04-27T04:31:59;88379.03;;;-143.16;53.27
14885;BME280;7534;50.762;7.000;2023-04-27T04:34:24;88423.47;;;-143.16;53.19
14885;BME280;7534;50.762;7.000;2023-04-27T04:36:50;88370.97;;;-143.16;53.54
14885;BME280;7534;50.762;7.000;2023-04-27T04:39:17;88373.00;;;-143.16;53.66
14885;BME280;7534;50.762;7.000;2023-04-27T04:41:46;88395.19;;;-143.16;53.68
14885;BME280;7534;50.762;7.000;2023-04-27T04:44:14;88401.25;;;-143.16;53.65
14885;BME280;7534;50.762;7.000;2023-04-27T04:46:41;88373.00;;;-143.16;53.57
14885;BME280;7534;50.762;7.000;2023-04-27T04:49:07;88389.13;;;-143.16;53.40
14885;BME280;7534;50.762;7.000;2023-04-27T04:51:33;88383.09;;;-143.16;53.50
14885;BME280;7534;50.762;7.000;2023-04-27T04:53:59;88362.91;;;-143.16;53.42
14885;BME280;7534;50.762;7.000;2023-04-27T04:56:24;88340.69;;;-143.16;53.15
14885;BME280;7534;50.762;7.000;2023-04-27T04:58:50;88360.88;;;-143.16;53.15
14885;BME280;7534;50.762;7.000;2023-04-27T05:01:16;88354.81;;;-143.16;53.10
14885;BME280;7534;50.762;7.000;2023-04-27T05:03:41;88334.63;;;-143.16;53.05
14885;BME280;7534;50.762;7.000;2023-04-27T05:06:07;88318.47;;;-143.16;53.15
14885;BME280;7534;50.762;7.000;2023-04-27T05:08:33;88316.47;;;-143.16;53.08
14885;BME280;7534;50.762;7.000;2023-04-27T05:10:59;88330.59;;;-143.16;52.93
14885;BME280;7534;50.762;7.000;2023-04-27T05:13:24;88314.44;;;-143.16;52.85
14885;BME280;7534;50.762;7.000;2023-04-27T05:15:51;88266.00;;;-143.16;52.85
14885;BME280;7534;50.762;7.000;2023-04-27T05:18:18;88308.38;;;-143.16;52.54
14885;BME280;7534;50.762;7.000;2023-04-27T05:20:44;88326.56;;;-143.16;52.42
14885;BME280;7534;50.762;7.000;2023-04-27T05:23:09;88288.19;;;-143.16;52.55
14885;BME280;7534;50.762;7.000;2023-04-27T05:25:36;88282.16;;;-143.16;52.22
14885;BME280;7534;50.762;7.000;2023-04-27T05:28:08;88298.28;;;-143.16;51.91
14885;BME280;7534;50.762;7.000;2023-04-27T05:30:35;88274.06;;;-143.16;51.69
14885;BME280;7534;50.762;7.000;2023-04-27T05:33:02;88225.63;;;-143.16;51.18
14885;BME280;7534;50.762;7.000;2023-04-27T05:35:29;88253.88;;;-143.16;50.58
14885;BME280;7534;50.762;7.000;2023-04-27T05:37:56;88207.44;;;-143.16;50.01
14885;BME280;7534;50.762;7.000;2023-04-27T05:40:22;88241.78;;;-143.16;49.89
14885;BME280;7534;50.762;7.000;2023-04-27T05:42:48;88205.44;;;-143.16;49.52
14885;BME280;7534;50.762;7.000;2023-04-27T05:45:14;88187.25;;;-143.16;49.03
14885;BME280;7534;50.762;7.000;2023-04-27T05:47:40;88169.09;;;-143.16;48.55
14885;BME280;7534;50.762;7.000;2023-04-27T05:50:06;88175.16;;;-143.16;48.27
14885;BME280;7534;50.762;7.000;2023-04-27T05:52:33;88106.53;;;-143.16;47.89
14885;BME280;7534;50.762;7.000;2023-04-27T05:54:59;88130.75;;;-143.16;47.38
14885;BME280;7534;50.762;7.000;2023-04-27T05:57:25;88120.66;;;-143.16;47.23
14885;BME280;7534;50.762;7.000;2023-04-27T05:59:52;88120.66;;;-143.16;46.88
14885;BME280;7534;50.762;7.000;2023-04-27T06:02:18;88120.66;;;-143.16;46.41
14885;BME280;7534;50.762;7.000;2023-04-27T06:04:45;88134.78;;;-143.16;46.66
14885;BME280;7534;50.762;7.000;2023-04-27T06:07:13;88124.69;;;-143.16;45.94
14885;BME280;7534;50.762;7.000;2023-04-27T06:09:40;88114.59;;;-143.16;45.72
14885;BME280;7534;50.762;7.000;2023-04-27T06:12:07;88118.63;;;-143.16;45.54
14885;BME280;7534;50.762;7.000;2023-04-27T06:14:35;88140.84;;;-143.16;45.23
14885;BME280;7534;50.762;7.000;2023-04-27T06:17:02;88116.63;;;-143.16;45.09
14885;BME280;7534;50.762;7.000;2023-04-27T06:19:29;88096.44;;;-143.16;45.06
14885;BME280;7534;50.762;7.000;2023-04-27T06:21:55;88080.28;;;-143.16;44.43
14885;BME280;7534;50.762;7.000;2023-04-27T06:24:21;88066.16;;;-143.16;44.13
14885;BME280;7534;50.762;7.000;2023-04-27T06:26:50;88056.06;;;-143.16;43.57
14885;BME280;7534;50.762;7.000;2023-04-27T06:29:16;88009.63;;;-143.16;42.99
14885;BME280;7534;50.762;7.000;2023-04-27T06:31:42;88035.88;;;-143.16;42.56
14885;BME280;7534;50.762;7.000;2023-04-27T06:34:07;88021.75;;;-143.16;42.48
14885;BME280;7534;50.762;7.000;2023-04-27T06:36:33;87975.31;;;-143.16;41.68
14885;BME280;7534;50.762;7.000;2023-04-27T06:38:59;87955.13;;;-143.16;40.85
14885;BME280;7534;50.762;7.000;2023-04-27T06:41:25;87914.75;;;-143.16;40.43
14885;BME280;7534;50.762;7.000;2023-04-27T06:43:52;87781.53;;;-143.16;37.97
14885;BME280;7534;50.762;7.000;2023-04-27T06:46:19;87454.56;;;-143.16;34.93
14885;BME280;7534;50.762;7.000;2023-04-27T06:48:45;87135.69;;;-143.16;31.49
14885;BME280;7534;50.762;7.000;2023-04-27T06:51:12;86792.66;;;-143.16;29.37
14885;BME280;7534;50.762;7.000;2023-04-27T06:53:40;86619.13;;;-143.16;27.43
14885;BME280;7534;50.762;7.000;2023-04-27T06:56:11;86461.75;;;-143.16;26.14
14885;BME280;7534;50.762;7.000;2023-04-27T06:58:37;86526.31;;;-143.16;26.16
14885;BME280;7534;50.762;7.000;2023-04-27T07:01:03;86447.63;;;-143.16;26.08
14885;BME280;7534;50.762;7.000;2023-04-27T07:03:29;86120.78;;;-143.16;24.70
14885;BME280;7534;50.762;7.000;2023-04-27T07:05:56;85977.53;;;-143.16;24.08
14885;BME280;7534;50.762;7.000;2023-04-27T07:08:23;85929.13;;;-143.16;23.67
14885;BME280;7534;50.762;7.000;2023-04-27T07:10:49;85896.84;;;-143.16;23.39
14885;BME280;7534;50.762;7.000;2023-04-27T07:13:15;86048.16;;;-143.16;23.91
14885;BME280;7534;50.762;7.000;2023-04-27T07:15:41;85910.97;;;-143.16;23.31
14885;BME280;7534;50.762;7.000;2023-04-27T07:18:06;86040.06;;;-143.16;23.48
14885;BME280;7534;50.762;7.000;2023-04-27T07:20:32;86078.41;;;-143.16;23.30
14885;BME280;7534;50.762;7.000;2023-04-27T07:22:58;86048.16;;;-143.16;23.53
14885;BME280;7534;50.762;7.000;2023-04-27T07:25:23;86147.00;;;-143.16;23.69
14885;BME280;7534;50.762;7.000;2023-04-27T07:27:49;86169.19;;;-143.16;23.90
14885;BME280;7534;50.762;7.000;2023-04-27T07:30:15;86171.22;;;-143.16;24.01
14885;BME280;7534;50.762;7.000;2023-04-27T07:32:42;86237.78;;;-143.16;23.79
14885;BME280;7534;50.762;7.000;2023-04-27T07:35:08;86153.06;;;-143.16;23.86
14885;BME280;7534;50.762;7.000;2023-04-27T07:37:38;86219.63;;;-143.16;23.69
14885;BME280;7534;50.762;7.000;2023-04-27T07:40:06;86221.66;;;-143.16;23.78
14885;BME280;7534;50.762;7.000;2023-04-27T07:42:44;86330.59;;;-143.16;23.96
14885;BME280;7534;50.762;7.000;2023-04-27T07:45:12;86381.03;;;-143.16;24.47
14885;BME280;7534;50.762;7.000;2023-04-27T07:47:38;86417.34;;;-143.16;24.38
14885;BME280;7534;50.762;7.000;2023-04-27T07:50:06;86245.84;;;-143.16;23.75
14885;BME280;7534;50.762;7.000;2023-04-27T07:52:32;86044.09;;;-143.16;23.25
14885;BME280;7534;50.762;7.000;2023-04-27T07:54:58;85719.31;;;-143.16;22.25
14885;BME280;7534;50.762;7.000;2023-04-27T07:57:23;85945.25;;;-143.16;23.07
14885;BME280;7534;50.762;7.000;2023-04-27T07:59:49;85888.78;;;-143.16;22.42
14885;BME280;7534;50.762;7.000;2023-04-27T08:02:15;85802.03;;;-143.16;22.37
14885;BME280;7534;50.762;7.000;2023-04-27T08:04:41;85747.56;;;-143.16;22.21
14885;BME280;7534;50.762;7.000;2023-04-27T08:07:06;85977.53;;;-143.16;22.87
14885;BME280;7534;50.762;7.000;2023-04-27T08:09:32;85894.81;;;-143.16;22.82
14885;BME280;7534;50.762;7.000;2023-04-27T08:11:57;85568.03;;;-143.16;21.76
14885;BME280;7534;50.762;7.000;2023-04-27T08:14:23;85670.91;;;-143.16;21.76
14885;BME280;7534;50.762;7.000;2023-04-27T08:16:49;85935.16;;;-143.16;22.26
14885;BME280;7534;50.762;7.000;2023-04-27T08:19:17;85662.84;;;-143.16;21.81
14885;BME280;7534;50.762;7.000;2023-04-27T08:21:43;85326.00;;;-143.16;21.27
14885;BME280;7534;50.762;7.000;2023-04-27T08:24:09;85406.66;;;-143.16;21.09
14885;BME280;7534;50.762;7.000;2023-04-27T08:26:34;85461.13;;;-143.16;21.35
14885;BME280;7534;50.762;7.000;2023-04-27T08:29:01;85491.38;;;-143.16;21.18
14885;BME280;7534;50.762;7.000;2023-04-27T08:31:27;86025.94;;;-143.16;22.29
14885;BME280;7534;50.762;7.000;2023-04-27T08:33:54;85626.53;;;-143.16;21.09
14885;BME280;7534;50.762;7.000;2023-04-27T08:36:22;85739.50;;;-143.16;21.24
14885;BME280;7534;50.762;7.000;2023-04-27T08:38:53;85630.56;;;-143.16;20.93
14885;BME280;7534;50.762;7.000;2023-04-27T08:41:21;85719.31;;;-143.16;21.15
14885;BME280;7534;50.762;7.000;2023-04-27T08:43:48;86036.03;;;-143.16;22.45
14885;BME280;7534;50.762;7.000;2023-04-27T08:46:22;86052.19;;;-143.16;22.30
14885;BME280;7534;50.762;7.000;2023-04-27T08:48:50;85832.28;;;-143.16;21.58
14885;BME280;7534;50.762;7.000;2023-04-27T08:51:16;85826.22;;;-143.16;21.48
14885;BME280;7534;50.762;7.000;2023-04-27T08:53:54;85586.19;;;-143.16;21.02
14885;BME280;7534;50.762;7.000;2023-04-27T08:56:25;85578.13;;;-143.16;20.75
14885;BME280;7534;50.762;7.000;2023-04-27T08:58:51;85721.34;;;-143.16;20.85
14885;BME280;7534;50.762;7.000;2023-04-27T09:01:18;85810.09;;;-143.16;21.39
14885;BME280;7534;50.762;7.000;2023-04-27T09:03:44;85818.16;;;-143.16;21.23
14885;BME280;7534;50.762;7.000;2023-04-27T09:06:12;86048.16;;;-143.16;21.82
14885;BME280;7534;50.762;7.000;2023-04-27T09:08:46;85884.72;;;-143.16;21.24
14885;BME280;7534;50.762;7.000;2023-04-27T09:11:15;85713.28;;;-143.16;20.46
14885;BME280;7534;50.762;7.000;2023-04-27T09:13:42;85703.19;;;-143.16;20.69
14885;BME280;7534;50.762;7.000;2023-04-27T09:16:12;85767.72;;;-143.16;20.73
14885;BME280;7534;50.762;7.000;2023-04-27T09:18:42;85791.94;;;-143.16;20.72
14885;BME280;7534;50.762;7.000;2023-04-27T09:21:08;85868.59;;;-143.16;21.38
14885;BME280;7534;50.762;7.000;2023-04-27T09:23:37;85646.69;;;-143.16;20.30
14885;BME280;7534;50.762;7.000;2023-04-27T09:26:06;85604.34;;;-143.16;20.14
14885;BME280;7534;50.762;7.000;2023-04-27T09:28:36;85745.53;;;-143.16;20.59
14885;BME280;7534;50.762;7.000;2023-04-27T09:31:03;85691.06;;;-143.16;20.80
14885;BME280;7534;50.762;7.000;2023-04-27T09:33:34;85695.13;;;-143.16;20.51
14885;BME280;7534;50.762;7.000;2023-04-27T09:36:05;85572.06;;;-143.16;20.24
14885;BME280;7534;50.762;7.000;2023-04-27T09:38:32;85864.56;;;-143.16;20.69
14885;BME280;7534;50.762;7.000;2023-04-27T09:40:58;85953.31;;;-143.16;21.18
14885;BME280;7534;50.762;7.000;2023-04-27T09:43:24;85781.84;;;-143.16;20.86
14885;BME280;7534;50.762;7.000;2023-04-27T09:45:54;85650.72;;;-143.16;20.70
14885;BME280;7534;50.762;7.000;2023-04-27T09:48:22;85731.41;;;-143.16;20.81
14885;BME280;7534;50.762;7.000;2023-04-27T09:50:50;85666.88;;;-143.16;20.81
14885;BME280;7534;50.762;7.000;2023-04-27T09:53:20;85997.72;;;-143.16;21.26
14885;BME280;7534;50.762;7.000;2023-04-27T10:01:50;85791.94;;;-143.16;20.64
14885;BME280;7534;50.762;7.000;2023-04-27T10:07:27;86094.53;;;-143.16;21.38
14885;BME280;7534;50.762;7.000;2023-04-27T10:09:53;86342.69;;;-143.16;22.49
14885;BME280;7534;50.762;7.000;2023-04-27T10:12:32;86257.97;;;-143.16;22.80
14885;BME280;7534;50.762;7.000;2023-04-27T10:15:15;86510.16;;;-143.16;22.91
14885;BME280;7534;50.762;7.000;2023-04-27T10:17:49;86532.34;;;-143.16;23.57
14885;BME280;7534;50.762;7.000;2023-04-27T10:20:28;86463.75;;;-143.16;23.52
14885;BME280;7534;50.762;7.000;2023-04-27T10:22:54;86542.44;;;-143.16;23.87
14885;BME280;7534;50.762;7.000;2023-04-27T10:25:26;86481.91;;;-143.16;23.43
14885;BME280;7534;50.762;7.000;2023-04-27T10:28:01;86566.66;;;-143.16;23.95
14885;BME280;7534;50.762;7.000;2023-04-27T10:30:37;86560.59;;;-143.16;23.85
14885;BME280;7534;50.762;7.000;2023-04-27T10:33:09;86534.38;;;-143.16;23.96
14885;BME280;7534;50.762;7.000;2023-04-27T10:38:19;86520.25;;;-143.16;23.49
14885;BME280;7534;50.762;7.000;2023-04-27T10:40:58;86623.16;;;-143.16;23.86
14885;BME280;7534;50.762;7.000;2023-04-27T10:43:32;86520.25;;;-143.16;24.00
14885;BME280;7534;50.762;7.000;2023-04-27T10:46:10;86574.72;;;-143.16;24.14
14885;BME280;7534;50.762;7.000;2023-04-27T10:48:42;86558.59;;;-143.16;24.22
14885;BME280;7534;50.762;7.000;2023-04-27T10:51:09;86570.69;;;-143.16;24.49
14885;BME280;7534;50.762;7.000;2023-04-27T10:53:39;86649.38;;;-143.16;24.30
14885;BME280;7534;50.762;7.000;2023-04-27T10:56:05;86796.69;;;-143.16;25.80
14885;BME280;7534;50.762;7.000;2023-04-27T10:58:33;86754.31;;;-143.16;25.70
14885;BME280;7534;50.762;7.000;2023-04-27T11:00:59;86952.06;;;-143.16;25.80
14885;BME280;7534;50.762;7.000;2023-04-27T11:03:25;86869.31;;;-143.16;26.21
14885;BME280;7534;50.762;7.000;2023-04-27T11:06:05;86865.28;;;-143.16;25.85
14885;BME280;7534;50.762;7.000;2023-04-27T11:08:31;86865.28;;;-143.16;26.01
14885;BME280;7534;50.762;7.000;2023-04-27T11:10:58;86867.31;;;-143.16;26.02
14885;BME280;7534;50.762;7.000;2023-04-27T11:13:25;86913.72;;;-143.16;26.31
14885;BME280;7534;50.762;7.000;2023-04-27T11:15:57;86869.31;;;-143.16;26.28
14885;BME280;7534;50.762;7.000;2023-04-27T11:18:26;86885.47;;;-143.16;25.98
14885;BME280;7534;50.762;7.000;2023-04-27T11:21:17;86778.53;;;-143.16;25.81
14885;BME280;7534;50.762;7.000;2023-04-27T11:23:44;86770.44;;;-143.16;25.93
14885;BME280;7534;50.762;7.000;2023-04-27T11:26:17;86722.03;;;-143.16;25.91
14885;BME280;7534;50.762;7.000;2023-04-27T11:29:05;86748.25;;;-143.16;26.38
14885;BME280;7534;50.762;7.000;2023-04-27T11:31:46;86937.94;;;-143.16;26.31
14885;BME280;7534;50.762;7.000;2023-04-27T11:34:30;87077.19;;;-143.16;26.75
14885;BME280;7534;50.762;7.000;2023-04-27T11:37:05;86998.47;;;-143.16;27.33
14885;BME280;7534;50.762;7.000;2023-04-27T11:39:37;86937.94;;;-143.16;26.55
14885;BME280;7534;50.762;7.000;2023-04-27T11:44:50;86774.50;;;-143.16;25.67
14885;BME280;7534;50.762;7.000;2023-04-27T11:47:16;86849.16;;;-143.16;25.69
14885;BME280;7534;50.762;7.000;2023-04-27T11:49:48;86707.91;;;-143.16;25.64
14885;BME280;7534;50.762;7.000;2023-04-27T11:52:14;86609.03;;;-143.16;25.11
14885;BME280;7534;50.762;7.000;2023-04-27T11:54:49;86772.47;;;-143.16;25.78
14885;BME280;7534;50.762;7.000;2023-04-27T11:57:23;86772.47;;;-143.16;25.96
14885;BME280;7534;50.762;7.000;2023-04-27T11:59:50;86853.19;;;-143.16;25.83
14885;BME280;7534;50.762;7.000;2023-04-27T12:02:17;86786.59;;;-143.16;25.70
14885;BME280;7534;50.762;7.000;2023-04-27T12:04:43;86764.41;;;-143.16;26.19
14885;BME280;7534;50.762;7.000;2023-04-27T12:07:08;86683.69;;;-143.16;25.76
14885;BME280;7534;50.762;7.000;2023-04-27T12:09:34;86600.97;;;-143.16;25.55
14885;BME280;7534;50.762;7.000;2023-04-27T12:12:00;86679.66;;;-143.16;25.33
14885;BME280;7534;50.762;7.000;2023-04-27T12:14:27;86730.09;;;-143.16;25.44
14885;BME280;7534;50.762;7.000;2023-04-27T12:16:52;86607.00;;;-143.16;26.11
14885;BME280;7534;50.762;7.000;2023-04-27T12:19:18;86693.78;;;-143.16;25.60
14885;BME280;7534;50.762;7.000;2023-04-27T12:21:44;86711.94;;;-143.16;26.21
14885;BME280;7534;50.762;7.000;2023-04-27T12:24:09;86800.72;;;-143.16;26.12
14885;BME280;7534;50.762;7.000;2023-04-27T12:26:35;86756.31;;;-143.16;26.24
14885;BME280;7534;50.762;7.000;2023-04-27T12:29:01;86722.03;;;-143.16;26.22
14885;BME280;7534;50.762;7.000;2023-04-27T12:31:28;86726.06;;;-143.16;26.13
14885;BME280;7534;50.762;7.000;2023-04-27T12:33:55;86818.88;;;-143.16;26.36
14885;BME280;7534;50.762;7.000;2023-04-27T12:36:21;86933.91;;;-143.16;27.11
14885;BME280;7534;50.762;7.000;2023-04-27T12:38:47;86907.66;;;-143.16;26.79
14885;BME280;7534;50.762;7.000;2023-04-27T12:41:12;86887.50;;;-143.16;26.87
14885;BME280;7534;50.762;7.000;2023-04-27T12:43:39;86925.84;;;-143.16;27.15
14885;BME280;7534;50.762;7.000;2023-04-27T12:46:05;86954.09;;;-143.16;27.33
14885;BME280;7534;50.762;7.000;2023-04-27T12:48:31;86903.63;;;-143.16;26.98
14885;BME280;7534;50.762;7.000;2023-04-27T12:50:58;86865.28;;;-143.16;26.55
14885;BME280;7534;50.762;7.000;2023-04-27T12:53:23;86822.91;;;-143.16;26.61
14885;BME280;7534;50.762;7.000;2023-04-27T12:55:49;86800.72;;;-143.16;26.41
14885;BME280;7534;50.762;7.000;2023-04-27T12:58:15;86740.19;;;-143.16;26.74
14885;BME280;7534;50.762;7.000;2023-04-27T13:00:41;86728.06;;;-143.16;25.97
14885;BME280;7534;50.762;7.000;2023-04-27T13:03:07;86681.66;;;-143.16;25.96
14885;BME280;7534;50.762;7.000;2023-04-27T13:05:33;86707.91;;;-143.16;26.28